Time;durP1;ratioP1;P1;durP2;ratioP2;P2;SDS_P1;SDS_P2;PMS_P1;PMS_P2;Temp;Humidity;BMP_temperature;BMP_pressure;BME280_temperature;BME280_humidity;BME280_pressure;Samples;Min_cycle;Max_cycle;Signal;HPM_P1;HPM_P2
2022/07/18 00:01:00;;;;;;;9.35;5.47;;;;;;;15.21;88.36;102412.84;5052284;28;20400;-80
2022/07/18 00:03:26;;;;;;;11.88;5.30;;;;;;;15.12;86.81;102407.78;5049304;28;20172;-80
2022/07/18 00:05:51;;;;;;;12.15;5.80;;;;;;;15.13;88.93;102410.38;5052395;28;20033;-80
2022/07/18 00:08:17;;;;;;;13.75;5.70;;;;;;;15.10;88.47;102404.31;5065778;28;20354;-80
2022/07/18 00:10:42;;;;;;;11.88;5.85;;;;;;;15.06;88.49;102407.88;5064144;28;20620;-80
2022/07/18 00:13:09;;;;;;;12.23;5.35;;;;;;;14.96;86.50;102401.94;5046234;28;20052;-80
2022/07/18 00:15:35;;;;;;;10.13;5.72;;;;;;;14.91;86.71;102402.03;5046173;28;20024;-80
2022/07/18 00:18:00;;;;;;;10.38;5.50;;;;;;;14.90;87.55;102400.28;5072683;28;20144;-80
2022/07/18 00:20:26;;;;;;;12.27;5.50;;;;;;;14.82;86.31;102394.34;5046636;28;20170;-80
2022/07/18 00:22:51;;;;;;;12.48;5.78;;;;;;;14.80;86.64;102401.34;5045688;28;20082;-80
2022/07/18 00:25:17;;;;;;;9.73;5.70;;;;;;;14.76;86.71;102393.56;5071288;28;20021;-80
2022/07/18 00:27:42;;;;;;;17.13;6.30;;;;;;;14.73;86.78;102396.25;5071545;28;20024;-80
2022/07/18 00:30:08;;;;;;;12.77;6.20;;;;;;;14.70;87.27;102386.72;5071301;28;20024;-80
2022/07/18 00:32:34;;;;;;;11.55;5.78;;;;;;;14.66;86.83;102389.41;5062488;28;20029;-80
2022/07/18 00:34:59;;;;;;;11.80;6.25;;;;;;;14.62;86.94;102389.44;5038662;28;20025;-80
2022/07/18 00:37:24;;;;;;;13.00;5.95;;;;;;;14.57;86.31;102382.56;5053051;28;20488;-80
2022/07/18 00:39:50;;;;;;;14.20;6.13;;;;;;;14.57;88.06;102379.97;5059590;28;20773;-80
2022/07/18 00:42:15;;;;;;;13.38;6.55;;;;;;;14.51;86.72;102387.88;5040453;28;20028;-80
2022/07/18 00:44:40;;;;;;;10.05;6.00;;;;;;;14.49;86.89;102392.25;5066214;28;20024;-80
2022/07/18 00:47:06;;;;;;;12.90;6.35;;;;;;;14.46;86.29;102389.72;5057641;28;20027;-80
2022/07/18 00:49:31;;;;;;;15.15;6.13;;;;;;;14.43;85.92;102384.53;5061175;28;20051;-80
2022/07/18 00:51:57;;;;;;;14.73;6.60;;;;;;;14.42;87.37;102380.19;5069295;28;20470;-80
2022/07/18 00:54:22;;;;;;;12.38;6.20;;;;;;;14.37;86.41;102371.53;5063571;28;20060;-80
2022/07/18 00:56:49;;;;;;;11.60;6.30;;;;;;;14.35;86.73;102370.69;5063913;28;20025;-80
2022/07/18 00:59:15;;;;;;;12.77;5.90;;;;;;;14.32;88.03;102378.59;5058960;28;20032;-79
2022/07/18 01:01:47;;;;;;;12.88;6.78;;;;;;;14.29;87.23;102381.22;5056437;28;20107;-79
2022/07/18 01:04:17;;;;;;;12.02;5.97;;;;;;;14.23;87.57;102372.59;5051933;28;20049;-79
2022/07/18 01:06:42;;;;;;;12.02;6.35;;;;;;;14.21;87.16;102374.38;5041720;28;20556;-79
2022/07/18 01:09:08;;;;;;;12.00;5.90;;;;;;;14.18;87.17;102374.44;5052147;28;20033;-79
2022/07/18 01:11:34;;;;;;;11.98;6.30;;;;;;;14.17;88.19;102367.47;5065616;28;20029;-78
2022/07/18 01:14:04;;;;;;;13.45;5.72;;;;;;;14.12;87.97;102364.09;5062621;28;20404;-78
2022/07/18 01:16:30;;;;;;;13.95;6.35;;;;;;;14.10;87.62;102358.03;5070496;28;20031;-78
2022/07/18 01:18:56;;;;;;;15.27;6.32;;;;;;;14.09;87.38;102360.63;5067530;28;20024;-78
2022/07/18 01:21:21;;;;;;;12.10;6.00;;;;;;;14.04;86.50;102359.84;5042671;28;20033;-78
2022/07/18 01:23:47;;;;;;;10.38;5.80;;;;;;;14.00;86.51;102363.38;5052164;28;20072;-79
2022/07/18 01:26:13;;;;;;;11.75;5.65;;;;;;;13.96;87.47;102354.72;5063895;28;20025;-79
2022/07/18 01:28:39;;;;;;;12.18;6.18;;;;;;;13.93;86.88;102356.50;5053344;28;20029;-79
2022/07/18 01:31:05;;;;;;;12.15;6.30;;;;;;;13.91;86.24;102360.91;5067469;28;20474;-79
2022/07/18 01:33:32;;;;;;;13.40;5.85;;;;;;;13.95;87.58;102367.78;5052811;28;20055;-79
2022/07/18 01:36:00;;;;;;;14.40;6.53;;;;;;;13.90;88.34;102354.81;5054406;28;20059;-79
2022/07/18 01:38:29;;;;;;;13.27;6.43;;;;;;;13.86;86.44;102363.53;5051367;28;20465;-79
2022/07/18 01:40:55;;;;;;;10.38;5.90;;;;;;;13.81;88.06;102353.19;5047950;28;20024;-78
2022/07/18 01:43:21;;;;;;;16.52;6.43;;;;;;;13.80;86.97;102353.19;5068124;28;20021;-78
2022/07/18 01:45:46;;;;;;;11.13;6.28;;;;;;;13.80;87.13;102350.59;5054712;28;20396;-78
2022/07/18 01:48:12;;;;;;;13.10;6.13;;;;;;;13.77;87.00;102356.72;5048931;28;20052;-78
2022/07/18 01:50:37;;;;;;;12.18;6.22;;;;;;;13.80;87.91;102350.59;5042918;28;20105;-78
2022/07/18 01:53:02;;;;;;;11.88;6.32;;;;;;;13.78;87.90;102360.19;5067301;28;20490;-78
2022/07/18 01:55:28;;;;;;;10.75;5.88;;;;;;;13.74;87.46;102353.28;5063288;28;20021;-78
2022/07/18 01:57:53;;;;;;;12.40;6.25;;;;;;;13.77;88.57;102358.47;5047291;28;20040;-78
2022/07/18 02:00:19;;;;;;;13.23;6.47;;;;;;;13.75;88.09;102357.63;5042986;28;20376;-78
2022/07/18 02:02:44;;;;;;;12.98;6.72;;;;;;;13.72;87.60;102349.81;5033126;28;20026;-78
2022/07/18 02:05:09;;;;;;;12.95;6.10;;;;;;;13.68;88.05;102342.94;5044299;28;20053;-78
2022/07/18 02:07:37;;;;;;;13.07;6.38;;;;;;;13.66;87.31;102349.91;5069645;28;20433;-78
2022/07/18 02:10:07;;;;;;;12.13;6.00;;;;;;;13.62;88.08;102359.50;5063197;28;20034;-79
2022/07/18 02:12:33;;;;;;;14.70;6.55;;;;;;;13.63;88.41;102347.34;5038258;28;20053;-79
2022/07/18 02:14:58;;;;;;;13.70;6.72;;;;;;;13.56;86.42;102343.97;5061240;28;20052;-79
2022/07/18 02:17:24;;;;;;;11.20;6.30;;;;;;;13.60;88.31;102335.22;5040096;28;20454;-79
2022/07/18 02:19:49;;;;;;;13.00;6.15;;;;;;;13.55;87.59;102334.41;5047597;28;20456;-79
2022/07/18 02:22:15;;;;;;;12.50;6.20;;;;;;;13.50;87.68;102322.34;5062959;28;20031;-80
2022/07/18 02:24:41;;;;;;;11.73;6.03;;;;;;;13.52;88.23;102329.22;5061296;28;20023;-79
2022/07/18 02:27:06;;;;;;;10.75;6.40;;;;;;;13.49;87.62;102325.81;5051510;28;20440;-79
2022/07/18 02:29:32;;;;;;;13.68;6.32;;;;;;;13.47;87.11;102325.81;5061915;28;20541;-79
2022/07/18 02:31:57;;;;;;;14.10;6.68;;;;;;;13.45;87.96;102322.38;5065839;28;20036;-79
2022/07/18 02:34:22;;;;;;;12.02;6.13;;;;;;;13.48;88.79;102321.47;5057748;28;20039;-79
2022/07/18 02:36:50;;;;;;;11.37;6.30;;;;;;;13.40;88.34;102325.03;5064771;28;20671;-79
2022/07/18 02:39:16;;;;;;;9.77;6.25;;;;;;;13.43;89.30;102331.97;5048858;28;20782;-79
2022/07/18 02:41:41;;;;;;;14.05;6.57;;;;;;;13.37;89.72;102319.00;5054099;28;20078;-79
2022/07/18 02:44:06;;;;;;;12.75;6.70;;;;;;;13.36;88.66;102323.34;5070231;28;20050;-79
2022/07/18 02:46:32;;;;;;;13.33;7.17;;;;;;;13.33;88.70;102325.97;5057903;28;20121;-79
2022/07/18 02:48:57;;;;;;;14.50;6.88;;;;;;;13.33;87.42;102330.31;5069054;28;20661;-79
2022/07/18 02:51:22;;;;;;;17.00;7.57;;;;;;;13.34;87.10;102321.63;5062344;28;20020;-79
2022/07/18 02:53:48;;;;;;;16.65;7.40;;;;;;;13.30;87.19;102323.44;5053223;28;20025;-79
2022/07/18 02:56:13;;;;;;;10.82;6.97;;;;;;;13.30;88.29;102323.44;5046387;28;20039;-79
2022/07/18 02:58:39;;;;;;;15.25;7.28;;;;;;;13.26;87.50;102326.94;5046560;28;20026;-79
2022/07/18 03:01:05;;;;;;;12.65;6.95;;;;;;;13.24;87.05;102339.09;5038053;28;20547;-79
2022/07/18 03:03:30;;;;;;;17.13;7.55;;;;;;;13.22;86.88;102330.47;5063003;28;20032;-79
2022/07/18 03:05:55;;;;;;;15.82;7.25;;;;;;;13.21;87.61;102322.66;5063104;28;20020;-79
2022/07/18 03:08:21;;;;;;;12.55;7.45;;;;;;;13.21;88.11;102320.06;5046134;28;20032;-79
2022/07/18 03:10:46;;;;;;;16.23;7.28;;;;;;;13.18;88.28;102320.06;5044462;28;20040;-78
2022/07/18 03:13:12;;;;;;;16.85;7.30;;;;;;;13.15;89.07;102318.38;5066327;28;20024;-78
2022/07/18 03:15:38;;;;;;;13.57;7.13;;;;;;;13.13;88.76;102309.72;5059506;28;20369;-78
2022/07/18 03:18:03;;;;;;;15.95;7.28;;;;;;;13.11;88.79;102308.81;5068001;28;20508;-79
2022/07/18 03:20:29;;;;;;;14.18;7.35;;;;;;;13.11;88.78;102308.81;5070198;28;20029;-78
2022/07/18 03:22:54;;;;;;;14.43;7.15;;;;;;;13.10;88.56;102301.88;5047856;28;20039;-79
2022/07/18 03:25:19;;;;;;;15.63;7.65;;;;;;;13.08;88.45;102303.66;5059197;28;20028;-78
2022/07/18 03:27:45;;;;;;;14.57;7.25;;;;;;;13.03;88.16;102298.50;5062590;28;20472;-79
2022/07/18 03:30:11;;;;;;;15.77;7.70;;;;;;;13.01;87.90;102295.06;5050245;28;20032;-78
2022/07/18 03:32:36;;;;;;;13.73;7.00;;;;;;;13.02;88.72;102301.13;5060063;28;20866;-79
2022/07/18 03:35:02;;;;;;;17.10;7.57;;;;;;;12.99;88.52;102295.94;5057649;28;20663;-78
2022/07/18 03:37:27;;;;;;;15.50;7.50;;;;;;;12.93;88.10;102289.06;5065913;28;20573;-79
2022/07/18 03:39:53;;;;;;;17.27;7.28;;;;;;;12.94;88.47;102292.53;5055068;28;20566;-79
2022/07/18 03:42:18;;;;;;;18.02;7.18;;;;;;;12.94;88.94;102297.75;5028060;28;20112;-79
2022/07/18 03:44:43;;;;;;;12.50;7.28;;;;;;;12.99;89.52;102293.34;5045432;28;20045;-79
2022/07/18 03:47:09;;;;;;;15.02;7.55;;;;;;;12.95;89.77;102292.53;5055117;28;20036;-79
2022/07/18 03:49:34;;;;;;;15.32;8.00;;;;;;;12.95;89.39;102286.47;5049069;28;20025;-78
2022/07/18 03:51:59;;;;;;;17.07;7.80;;;;;;;12.96;89.18;102288.19;5049784;28;20033;-79
2022/07/18 03:54:25;;;;;;;14.98;7.47;;;;;;;12.93;88.54;102289.06;5066453;28;20287;-79
2022/07/18 03:56:51;;;;;;;18.25;7.80;;;;;;;12.93;88.40;102286.47;5066429;28;20079;-78
2022/07/18 03:59:16;;;;;;;20.48;8.40;;;;;;;12.94;89.25;102288.19;5051448;28;20040;-79
2022/07/18 04:01:41;;;;;;;21.65;8.25;;;;;;;12.97;88.84;102282.06;5051213;28;20033;-78
2022/07/18 04:04:07;;;;;;;17.77;8.80;;;;;;;12.98;89.67;102283.81;5034732;28;20098;-79
2022/07/18 04:06:32;;;;;;;18.30;8.02;;;;;;;12.98;89.49;102283.81;5069417;28;20506;-78
2022/07/18 04:08:57;;;;;;;20.10;7.97;;;;;;;13.01;89.98;102284.66;5069503;28;20021;-79
2022/07/18 04:11:23;;;;;;;13.77;7.97;;;;;;;13.04;90.05;102286.34;5061773;28;20132;-78
2022/07/18 04:13:52;;;;;;;16.80;8.35;;;;;;;13.12;90.31;102292.34;5050604;28;20301;-79
2022/07/18 04:16:18;;;;;;;14.43;7.75;;;;;;;13.09;90.28;102281.97;5057720;28;20017;-79
2022/07/18 04:18:43;;;;;;;16.15;8.43;;;;;;;13.10;89.58;102281.06;5052508;28;20041;-78
2022/07/18 04:21:09;;;;;;;17.40;8.60;;;;;;;13.10;89.38;102272.41;5065355;28;20484;-79
2022/07/18 04:23:34;;;;;;;17.88;8.57;;;;;;;13.12;89.28;102276.72;5048054;28;20056;-78
2022/07/18 04:25:59;;;;;;;18.40;8.68;;;;;;;13.13;88.73;102278.47;5069403;28;20162;-79
2022/07/18 04:28:24;;;;;;;18.35;8.73;;;;;;;13.19;88.76;102278.41;5069210;28;20028;-79
2022/07/18 04:30:50;;;;;;;16.45;7.85;;;;;;;13.15;88.99;102276.72;5066962;28;20471;-79
2022/07/18 04:33:16;;;;;;;16.65;8.45;;;;;;;13.15;90.18;102276.72;5048043;28;20443;-79
2022/07/18 04:35:41;;;;;;;15.98;8.35;;;;;;;13.19;90.38;102265.38;5059728;28;20018;-79
2022/07/18 04:38:09;;;;;;;17.10;9.10;;;;;;;13.21;89.88;102266.22;5050609;28;20028;-79
2022/07/18 04:40:36;;;;;;;19.42;9.18;;;;;;;13.23;90.14;102269.69;5053444;28;20025;-79
2022/07/18 04:43:01;;;;;;;17.10;9.00;;;;;;;13.24;90.03;102253.16;5056933;28;20043;-79
2022/07/18 04:45:27;;;;;;;24.70;9.90;;;;;;;13.28;91.01;102259.22;5049020;28;20033;-79
2022/07/18 04:47:54;;;;;;;23.40;10.68;;;;;;;13.31;91.32;102257.41;5052939;28;20430;-79
2022/07/18 04:50:21;;;;;;;21.40;9.43;;;;;;;13.32;91.32;102259.16;5069759;28;20025;-79
2022/07/18 04:52:47;;;;;;;20.92;10.05;;;;;;;13.37;90.95;102261.72;5054246;28;20036;-79
2022/07/18 04:55:15;;;;;;;21.95;10.23;;;;;;;13.37;90.59;102259.94;5060107;28;20028;-79
2022/07/18 04:57:40;;;;;;;23.08;10.40;;;;;;;13.42;90.51;102255.56;5041600;28;20027;-79
2022/07/18 05:00:10;;;;;;;26.75;11.02;;;;;;;13.46;91.40;102256.38;5057382;28;20033;-79
2022/07/18 05:02:42;;;;;;;22.92;10.90;;;;;;;13.50;91.70;102255.47;5044701;28;20034;-79
2022/07/18 05:05:09;;;;;;;26.35;10.57;;;;;;;13.57;91.60;102259.72;5048084;28;20178;-79
2022/07/18 05:07:34;;;;;;;26.45;11.00;;;;;;;13.62;90.76;102264.84;5072151;28;20106;-79
2022/07/18 05:10:00;;;;;;;25.58;11.43;;;;;;;13.70;91.64;102265.63;5066416;28;20119;-79
2022/07/18 05:12:25;;;;;;;27.42;12.05;;;;;;;13.71;91.74;102269.94;5063476;28;20028;-79
2022/07/18 05:14:51;;;;;;;25.42;11.55;;;;;;;13.74;91.31;102264.69;5072454;28;20090;-79
2022/07/18 05:17:16;;;;;;;24.00;11.77;;;;;;;13.78;92.10;102263.78;5067186;28;20524;-79
2022/07/18 05:19:42;;;;;;;29.67;11.68;;;;;;;13.82;90.20;102265.44;5066070;28;20465;-79
2022/07/18 05:22:07;;;;;;;27.00;11.43;;;;;;;13.88;90.02;102267.09;5047200;28;20020;-79
2022/07/18 05:24:32;;;;;;;28.48;11.98;;;;;;;13.95;91.21;102258.28;5064857;28;20036;-79
2022/07/18 05:26:58;;;;;;;34.65;12.75;;;;;;;14.01;86.27;102261.66;5049536;28;20451;-79
2022/07/18 05:29:23;;;;;;;28.70;12.52;;;;;;;14.09;87.12;102259.81;5056974;28;20109;-79
2022/07/18 05:31:48;;;;;;;28.43;13.83;;;;;;;14.18;85.67;102267.50;5050100;28;20035;-79
2022/07/18 05:34:14;;;;;;;31.57;14.13;;;;;;;14.30;87.21;102268.19;5064281;28;20640;-79
2022/07/18 05:36:39;;;;;;;26.65;13.57;;;;;;;14.35;85.08;102258.53;5052560;28;20363;-79
2022/07/18 05:39:04;;;;;;;24.70;13.90;;;;;;;14.43;87.26;102261.91;5071763;28;20021;-79
2022/07/18 05:41:30;;;;;;;27.48;15.82;;;;;;;14.53;90.24;102259.09;5071663;28;20127;-79
2022/07/18 05:43:55;;;;;;;22.70;14.18;;;;;;;14.58;86.86;102257.28;5050336;28;20047;-79
2022/07/18 05:46:20;;;;;;;24.15;14.35;;;;;;;14.66;87.16;102270.22;5060538;28;20864;-79
2022/07/18 05:48:46;;;;;;;23.27;14.98;;;;;;;14.74;89.16;102265.69;5051712;28;20115;-79
2022/07/18 05:51:12;;;;;;;21.20;14.93;;;;;;;14.80;90.71;102262.13;5064330;28;20098;-79
2022/07/18 05:53:37;;;;;;;24.48;15.45;;;;;;;14.83;89.23;102262.06;5071282;28;20031;-79
2022/07/18 05:56:03;;;;;;;21.40;13.32;;;;;;;14.87;88.37;102268.97;5060455;28;20390;-79
2022/07/18 05:58:28;;;;;;;25.95;13.82;;;;;;;14.91;85.54;102274.09;5056182;28;20028;-79
2022/07/18 06:00:53;;;;;;;27.55;13.10;;;;;;;15.01;87.90;102270.38;5030847;28;20029;-79
2022/07/18 06:03:19;;;;;;;21.70;11.82;;;;;;;15.09;86.23;102275.47;5033551;28;20044;-79
2022/07/18 06:05:44;;;;;;;24.88;12.45;;;;;;;15.20;84.82;102267.44;5042306;28;20517;-79
2022/07/18 06:08:10;;;;;;;24.20;12.57;;;;;;;15.25;86.45;102271.69;5046897;28;20090;-79
2022/07/18 06:10:35;;;;;;;19.83;11.57;;;;;;;15.29;85.48;102262.88;5034882;28;20040;-79
2022/07/18 06:13:00;;;;;;;19.08;12.07;;;;;;;15.34;85.47;102271.50;5045831;28;20033;-79
2022/07/18 06:15:26;;;;;;;21.38;11.95;;;;;;;15.42;87.16;102266.13;5034006;28;20021;-79
2022/07/18 06:17:52;;;;;;;24.42;12.23;;;;;;;15.45;87.17;102259.94;5048498;28;20024;-79
2022/07/18 06:20:18;;;;;;;24.40;13.00;;;;;;;15.50;84.77;102258.94;5046795;28;20025;-79
2022/07/18 06:22:43;;;;;;;20.92;12.90;;;;;;;15.59;88.47;102257.94;5056064;28;20046;-79
2022/07/18 06:25:09;;;;;;;27.33;13.95;;;;;;;15.66;88.02;102263.00;5048270;28;20036;-79
2022/07/18 06:27:35;;;;;;;24.42;13.02;;;;;;;15.75;87.94;102251.47;5048876;28;20032;-79
2022/07/18 06:30:04;;;;;;;21.50;12.05;;;;;;;15.80;86.24;102250.47;5053063;28;20056;-79
2022/07/18 06:32:30;;;;;;;21.45;13.13;;;;;;;15.91;88.38;102242.38;5060713;28;20122;-79
2022/07/18 06:34:55;;;;;;;24.55;13.48;;;;;;;16.00;81.97;102239.53;5047159;28;20051;-79
2022/07/18 06:37:20;;;;;;;22.10;14.48;;;;;;;16.09;79.72;102233.25;5065416;28;20216;-79
2022/07/18 06:39:46;;;;;;;23.15;14.07;;;;;;;16.25;79.07;102234.56;5069201;28;20020;-80
2022/07/18 06:42:11;;;;;;;26.35;14.10;;;;;;;16.36;80.73;102231.69;5070249;28;20536;-81
2022/07/18 06:44:36;;;;;;;22.23;14.38;;;;;;;16.45;81.18;102232.31;5059362;28;20044;-84
2022/07/18 06:47:02;;;;;;;25.77;14.68;;;;;;;16.51;83.06;102229.50;5056585;28;20028;-82
2022/07/18 06:49:27;;;;;;;20.38;13.68;;;;;;;16.57;82.42;102223.28;5070203;28;20171;-84
2022/07/18 06:51:52;;;;;;;21.95;15.05;;;;;;;16.68;83.08;102228.25;5057160;28;20022;-87
2022/07/18 06:54:19;;;;;;;22.27;14.38;;;;;;;16.79;81.37;102226.19;5069862;28;20462;-84
2022/07/18 06:56:45;;;;;;;25.38;16.27;;;;;;;16.96;85.89;102224.84;5050933;28;20116;-85
2022/07/18 06:59:11;;;;;;;25.67;15.07;;;;;;;17.12;77.66;102227.91;5066553;28;20449;-86
2022/07/18 07:01:36;;;;;;;23.92;14.75;;;;;;;17.25;79.61;102224.03;5044471;28;20083;-93
2022/07/18 07:04:01;;;;;;;26.85;15.43;;;;;;;17.46;77.20;102232.16;5052399;28;20095;-88
2022/07/18 07:06:27;;;;;;;23.23;15.52;;;;;;;17.61;81.67;102226.44;5062056;28;20506;-91
2022/07/18 07:08:52;;;;;;;27.85;15.30;;;;;;;17.75;77.50;102227.75;5062418;28;20450;-89
2022/07/18 07:11:18;;;;;;;24.83;14.98;;;;;;;17.95;74.77;102232.34;5070558;28;20393;-92
2022/07/18 07:13:43;;;;;;;22.83;15.25;;;;;;;18.09;80.59;102235.38;5070128;28;20029;-89
2022/07/18 07:16:08;;;;;;;25.63;15.07;;;;;;;18.30;79.73;102240.84;5038783;28;20398;-90
2022/07/18 07:18:34;;;;;;;25.38;15.18;;;;;;;18.44;80.47;102247.34;5041928;28;20293;-87
2022/07/18 07:20:59;;;;;;;23.95;14.73;;;;;;;18.58;78.72;102240.78;5069151;28;20058;-85
2022/07/18 07:23:25;;;;;;;28.55;14.57;;;;;;;18.75;78.85;102236.69;5069652;28;20474;-88
2022/07/18 07:25:50;;;;;;;28.42;16.15;;;;;;;18.93;82.03;102237.78;5052381;28;20033;-86
2022/07/18 07:28:16;;;;;;;25.30;14.95;;;;;;;19.13;77.91;102239.69;5064779;28;20505;-86
2022/07/18 07:30:42;;;;;;;23.27;15.27;;;;;;;19.33;74.06;102231.91;5062590;28;20112;-88
2022/07/18 07:33:09;;;;;;;26.80;15.02;;;;;;;19.49;76.22;102232.22;5060939;28;20074;-89
2022/07/18 07:35:34;;;;;;;25.33;14.15;;;;;;;19.64;73.16;102229.84;5055141;28;20032;-86
2022/07/18 07:38:00;;;;;;;22.85;13.95;;;;;;;19.88;71.49;102232.41;5070141;28;20024;-86
2022/07/18 07:40:27;;;;;;;25.65;14.65;;;;;;;20.08;74.42;102232.44;5070335;28;20029;-89
2022/07/18 07:43:05;;;;;;;22.20;13.13;;;;;;;20.30;73.50;102225.38;5057784;28;20029;-88
2022/07/18 07:45:30;;;;;;;24.70;12.93;;;;;;;20.55;67.78;102226.97;5039933;28;20494;-89
2022/07/18 07:47:55;;;;;;;23.13;12.55;;;;;;;20.70;69.54;102224.56;5048638;28;20309;-87
2022/07/18 07:50:21;;;;;;;19.23;11.52;;;;;;;20.95;71.10;102215.56;5063217;28;20085;-87
2022/07/18 07:52:46;;;;;;;21.83;11.50;;;;;;;21.20;63.91;102210.91;5069842;28;20440;-89
2022/07/18 07:55:11;;;;;;;18.05;10.65;;;;;;;21.76;64.32;102210.88;5054856;28;20303;-88
2022/07/18 07:57:37;;;;;;;19.30;10.52;;;;;;;22.80;64.31;102198.53;5055399;28;20035;-85
2022/07/18 08:00:06;;;;;;;16.80;9.48;;;;;;;23.76;57.85;102190.56;5063299;28;20020;-85
2022/07/18 08:02:31;;;;;;;18.52;8.95;;;;;;;24.82;54.06;102192.16;5070528;28;20370;-89
2022/07/18 08:04:57;;;;;;;15.55;8.77;;;;;;;25.68;51.56;102187.59;5052215;28;20128;-86
2022/07/18 08:07:23;;;;;;;15.88;8.77;;;;;;;26.48;50.01;102176.81;5061871;28;20027;-84
2022/07/18 08:09:48;;;;;;;16.20;8.40;;;;;;;27.16;46.78;102175.59;5060191;28;20032;-84
2022/07/18 08:12:13;;;;;;;13.10;7.40;;;;;;;27.60;47.95;102167.88;5061786;28;20047;-87
2022/07/18 08:14:40;;;;;;;17.58;7.88;;;;;;;28.18;44.66;102168.84;5057804;28;20282;-85
2022/07/18 08:17:05;;;;;;;14.32;7.68;;;;;;;28.36;44.26;102171.91;5047869;28;20032;-95
2022/07/18 08:19:31;;;;;;;12.35;7.00;;;;;;;28.24;47.84;102179.91;5060088;28;20025;-95
2022/07/18 08:21:56;;;;;;;13.40;6.30;;;;;;;28.09;44.42;102183.69;5071082;28;20033;-88
2022/07/18 08:24:21;;;;;;;10.88;5.90;;;;;;;27.86;46.66;102185.44;5055164;28;20057;-90
2022/07/18 08:26:47;;;;;;;8.40;4.82;;;;;;;27.95;43.96;102191.91;5073092;28;20186;-89
2022/07/18 08:29:12;;;;;;;11.43;4.77;;;;;;;27.65;39.54;102195.03;5063091;28;20035;-87
2022/07/18 08:31:37;;;;;;;9.17;4.27;;;;;;;27.69;44.27;102198.34;5064112;28;20082;-88
2022/07/18 08:34:03;;;;;;;9.07;4.50;;;;;;;27.71;41.15;102199.91;5052753;28;20631;-88
2022/07/18 08:36:28;;;;;;;10.70;4.07;;;;;;;27.84;45.42;102197.19;5067190;28;20009;-85
2022/07/18 08:38:53;;;;;;;8.80;4.28;;;;;;;28.05;41.63;102192.03;5066087;28;20267;-86
2022/07/18 08:41:22;;;;;;;9.63;4.10;;;;;;;28.09;38.92;102191.69;5051296;28;20040;-85
2022/07/18 08:43:49;;;;;;;11.80;3.90;;;;;;;28.05;41.11;102192.03;5054270;28;20267;-91
2022/07/18 08:46:18;;;;;;;12.18;4.18;;;;;;;28.02;38.82;102198.47;5058849;28;20039;-84
2022/07/18 08:48:44;;;;;;;10.73;4.20;;;;;;;28.04;38.89;102185.03;5064153;28;20530;-87
2022/07/18 08:51:09;;;;;;;8.50;3.92;;;;;;;28.12;40.54;102193.25;5065432;28;20020;-87
2022/07/18 08:53:37;;;;;;;10.52;3.80;;;;;;;27.96;40.50;102180.28;5066962;28;20024;-88
2022/07/18 08:56:04;;;;;;;10.73;3.60;;;;;;;28.01;40.12;102183.44;5054828;28;20020;-86
2022/07/18 08:58:29;;;;;;;8.23;4.35;;;;;;;28.14;39.17;102183.34;5073568;28;20032;-87
2022/07/18 09:00:54;;;;;;;6.60;4.00;;;;;;;28.25;41.73;102184.25;5059038;28;20026;-86
2022/07/18 09:03:20;;;;;;;9.25;3.90;;;;;;;28.17;39.06;102186.69;5062448;28;20075;-88
2022/07/18 09:05:45;;;;;;;12.13;3.65;;;;;;;28.21;40.58;102188.13;5057473;28;20049;-87
2022/07/18 09:08:16;;;;;;;7.55;3.88;;;;;;;28.34;43.88;102179.16;5056309;28;20029;-86
2022/07/18 09:10:53;;;;;;;8.98;4.10;;;;;;;28.38;35.58;102181.50;5071053;28;20496;-85
2022/07/18 09:13:22;;;;;;;7.25;3.80;;;;;;;28.51;39.86;102176.06;5066454;28;20020;-83
2022/07/18 09:15:58;;;;;;;6.47;3.85;;;;;;;28.62;38.89;102184.91;5057559;28;20230;-83
2022/07/18 09:18:34;;;;;;;6.68;3.83;;;;;;;28.68;40.12;102181.75;5066231;28;20043;-84
2022/07/18 09:21:03;;;;;;;10.20;4.00;;;;;;;28.64;36.55;102172.31;5073376;28;20020;-82
2022/07/18 09:23:31;;;;;;;9.68;3.70;;;;;;;28.63;37.30;102175.94;5063736;28;20362;-82
2022/07/18 09:25:56;;;;;;;8.25;3.58;;;;;;;28.62;38.09;102179.56;5066083;28;20584;-82
2022/07/18 09:28:21;;;;;;;7.70;3.42;;;;;;;28.81;40.52;102181.66;5056053;28;20041;-82
2022/07/18 09:30:47;;;;;;;9.70;3.67;;;;;;;29.05;36.49;102185.06;5045994;28;20051;-82
2022/07/18 09:33:12;;;;;;;7.00;3.60;;;;;;;29.14;36.53;102183.44;5055583;28;20287;-83
2022/07/18 09:35:46;;;;;;;7.05;3.55;;;;;;;29.24;39.13;102186.22;5068406;28;20027;-85
2022/07/18 09:38:14;;;;;;;9.80;3.78;;;;;;;29.26;37.14;102184.28;5071532;28;20100;-84
2022/07/18 09:40:42;;;;;;;8.32;3.60;;;;;;;29.38;38.07;102192.19;5063164;28;20024;-84
2022/07/18 09:43:16;;;;;;;7.57;3.45;;;;;;;29.55;39.33;102182.78;5065620;28;20031;-87
2022/07/18 09:45:43;;;;;;;7.30;3.30;;;;;;;29.57;32.50;102185.31;5058684;28;20047;-82
2022/07/18 09:48:17;;;;;;;7.07;3.50;;;;;;;29.41;35.87;102185.75;5065289;28;20040;-85
2022/07/18 09:50:55;;;;;;;6.50;3.58;;;;;;;29.38;36.55;102180.66;5060294;28;20029;-85
2022/07/18 09:53:30;;;;;;;14.15;3.60;;;;;;;29.39;37.01;102179.69;5065716;28;20317;-84
2022/07/18 09:55:57;;;;;;;7.15;3.72;;;;;;;29.47;36.64;102171.88;5051728;28;20443;-86
2022/07/18 09:58:31;;;;;;;6.88;3.65;;;;;;;29.39;39.17;102179.69;5060512;28;20418;-85
2022/07/18 10:00:58;;;;;;;8.38;3.65;;;;;;;29.56;38.40;102178.28;5048414;28;20044;-85
2022/07/18 10:03:24;;;;;;;11.48;3.58;;;;;;;29.59;38.48;102173.53;5060189;28;20033;-86
2022/07/18 10:05:52;;;;;;;9.60;3.35;;;;;;;29.75;35.40;102178.47;5049395;28;20049;-84
2022/07/18 10:08:20;;;;;;;9.20;3.40;;;;;;;29.81;35.20;102173.47;5065583;28;20056;-85
2022/07/18 10:10:48;;;;;;;8.02;3.30;;;;;;;29.87;36.58;102176.56;5059935;28;20017;-86
2022/07/18 10:13:15;;;;;;;7.13;3.22;;;;;;;30.00;36.34;102172.78;5040710;28;20111;-87
2022/07/18 10:15:43;;;;;;;6.78;3.30;;;;;;;30.20;33.44;102169.25;5041885;28;20029;-88
2022/07/18 10:18:13;;;;;;;7.70;3.40;;;;;;;30.44;32.32;102165.41;5050090;28;20021;-86
2022/07/18 10:20:40;;;;;;;12.15;3.60;;;;;;;30.46;31.61;102171.50;5059605;28;20021;-86
2022/07/18 10:23:10;;;;;;;7.50;3.30;;;;;;;30.22;32.81;102161.09;5071712;28;20029;-85
2022/07/18 10:25:36;;;;;;;7.45;3.75;;;;;;;30.24;33.96;102161.78;5067221;28;20021;-85
2022/07/18 10:28:14;;;;;;;6.28;3.60;;;;;;;30.23;35.51;102173.47;5055120;28;20027;-87
2022/07/18 10:30:39;;;;;;;6.68;3.25;;;;;;;30.33;34.60;102169.03;5047902;28;20154;-87
2022/07/18 10:33:41;;;;;;;4.30;3.22;;;;;;;30.48;34.53;102166.88;5053729;28;20068;-92
2022/07/18 10:36:23;;;;;;;5.85;3.00;;;;;;;30.43;34.13;102169.09;5050177;28;20091;-90
2022/07/18 10:39:07;;;;;;;8.27;3.55;;;;;;;30.42;35.07;102167.41;5050723;28;20117;-89
2022/07/18 10:41:38;;;;;;;7.53;3.70;;;;;;;30.24;33.62;102165.31;5064932;28;20099;-89
2022/07/18 10:44:27;;;;;;;8.50;3.42;;;;;;;30.32;33.78;102159.31;5060199;28;20043;-89
2022/07/18 10:49:52;;;;;;;7.90;3.35;;;;;;;30.20;35.38;102166.56;5065399;28;20041;-90
2022/07/18 10:52:23;;;;;;;8.57;3.63;;;;;;;30.27;33.41;102158.88;5056775;28;20456;-87
2022/07/18 10:57:40;;;;;;;8.50;3.70;;;;;;;30.43;34.47;102153.03;5050667;28;20063;-86
2022/07/18 11:00:08;;;;;;;5.68;3.47;;;;;;;30.26;33.42;102159.84;5056262;28;20056;-86
2022/07/18 11:02:37;;;;;;;6.60;3.85;;;;;;;30.37;32.39;102165.09;5069812;28;20056;-87
2022/07/18 11:05:22;;;;;;;5.85;3.55;;;;;;;30.29;34.96;102156.06;5059086;28;20498;-91
2022/07/18 11:07:57;;;;;;;8.43;3.40;;;;;;;30.33;34.52;102147.63;5047015;28;20056;-84
2022/07/18 11:10:43;;;;;;;6.75;3.60;;;;;;;30.29;34.82;102148.03;5056350;28;20135;-84
2022/07/18 11:13:28;;;;;;;6.35;3.60;;;;;;;30.15;34.38;102149.22;5052666;28;20029;-85
2022/07/18 11:15:57;;;;;;;6.65;3.60;;;;;;;30.20;36.12;102141.66;5044513;28;20127;-85
2022/07/18 11:18:22;;;;;;;10.73;3.70;;;;;;;30.18;35.26;102148.94;5061407;28;20028;-85
2022/07/18 11:20:48;;;;;;;11.20;3.90;;;;;;;30.32;34.21;102137.91;5050602;28;20041;-85